sensor_id;sensor_type;location;lat;lon;timestamp;temperature;humidity
32348;DHT22;18821;44.800;10.326;2022-10-26T00:00:48;16.70;99.90
32348;DHT22;18821;44.800;10.326;2022-10-26T00:03:15;16.80;99.90
32348;DHT22;18821;44.800;10.326;2022-10-26T00:05:42;16.80;99.90
32348;DHT22;18821;44.800;10.326;2022-10-26T00:08:08;16.80;99.90
32348;DHT22;18821;44.800;10.326;2022-10-26T00:10:36;16.90;99.90
32348;DHT22;18821;44.800;10.326;2022-10-26T00:13:03;16.90;99.90
32348;DHT22;18821;44.800;10.326;2022-10-26T00:15:30;16.90;99.90
32348;DHT22;18821;44.800;10.326;2022-10-26T00:17:56;16.90;99.90
32348;DHT22;18821;44.800;10.326;2022-10-26T00:20:22;16.90;99.90
32348;DHT22;18821;44.800;10.326;2022-10-26T00:22:48;16.90;99.90
32348;DHT22;18821;44.800;10.326;2022-10-26T00:25:16;16.90;99.90
32348;DHT22;18821;44.800;10.326;2022-10-26T00:27:41;17.00;99.90
32348;DHT22;18821;44.800;10.326;2022-10-26T00:30:09;17.00;99.90
32348;DHT22;18821;44.800;10.326;2022-10-26T00:32:34;17.00;99.90
32348;DHT22;18821;44.800;10.326;2022-10-26T00:35:00;17.00;99.90
32348;DHT22;18821;44.800;10.326;2022-10-26T00:37:26;17.00;99.90
32348;DHT22;18821;44.800;10.326;2022-10-26T00:39:52;17.00;99.90
32348;DHT22;18821;44.800;10.326;2022-10-26T00:42:21;17.00;99.90
32348;DHT22;18821;44.800;10.326;2022-10-26T00:47:33;17.00;99.90
32348;DHT22;18821;44.800;10.326;2022-10-26T00:50:24;17.00;99.90
32348;DHT22;18821;44.800;10.326;2022-10-26T00:52:52;17.00;99.90
32348;DHT22;18821;44.800;10.326;2022-10-26T00:55:20;16.90;99.90
32348;DHT22;18821;44.800;10.326;2022-10-26T00:57:50;16.90;99.90
32348;DHT22;18821;44.800;10.326;2022-10-26T01:00:18;16.90;99.90
32348;DHT22;18821;44.800;10.326;2022-10-26T01:02:45;16.80;99.90
32348;DHT22;18821;44.800;10.326;2022-10-26T01:05:13;16.80;99.90
32348;DHT22;18821;44.800;10.326;2022-10-26T01:07:39;16.80;99.90
32348;DHT22;18821;44.800;10.326;2022-10-26T01:10:06;16.70;99.90
32348;DHT22;18821;44.800;10.326;2022-10-26T01:12:32;16.70;99.90
32348;DHT22;18821;44.800;10.326;2022-10-26T01:14:58;16.70;99.90
32348;DHT22;18821;44.800;10.326;2022-10-26T01:21:03;16.60;99.90
32348;DHT22;18821;44.800;10.326;2022-10-26T01:24:32;16.60;99.90
32348;DHT22;18821;44.800;10.326;2022-10-26T01:35:09;16.30;99.90
32348;DHT22;18821;44.800;10.326;2022-10-26T01:37:43;16.30;99.90
32348;DHT22;18821;44.800;10.326;2022-10-26T01:40:19;16.20;99.90
32348;DHT22;18821;44.800;10.326;2022-10-26T01:42:50;16.20;99.90
32348;DHT22;18821;44.800;10.326;2022-10-26T01:45:17;16.20;99.90
32348;DHT22;18821;44.800;10.326;2022-10-26T01:47:44;16.20;99.90
32348;DHT22;18821;44.800;10.326;2022-10-26T01:50:11;16.20;99.90
32348;DHT22;18821;44.800;10.326;2022-10-26T01:52:38;16.20;99.90
32348;DHT22;18821;44.800;10.326;2022-10-26T02:04:05;16.20;99.90
32348;DHT22;18821;44.800;10.326;2022-10-26T02:11:49;16.10;99.90
32348;DHT22;18821;44.800;10.326;2022-10-26T02:14:21;16.10;99.90
32348;DHT22;18821;44.800;10.326;2022-10-26T02:16:57;16.10;99.90
32348;DHT22;18821;44.800;10.326;2022-10-26T02:19:31;16.10;99.90
32348;DHT22;18821;44.800;10.326;2022-10-26T02:22:12;16.10;99.90
32348;DHT22;18821;44.800;10.326;2022-10-26T02:24:40;16.10;99.90
32348;DHT22;18821;44.800;10.326;2022-10-26T02:27:09;16.10;99.90
32348;DHT22;18821;44.800;10.326;2022-10-26T02:29:37;16.10;99.90
32348;DHT22;18821;44.800;10.326;2022-10-26T02:32:06;16.10;99.90
32348;DHT22;18821;44.800;10.326;2022-10-26T02:34:35;16.10;99.90
32348;DHT22;18821;44.800;10.326;2022-10-26T02:37:03;16.10;99.90
32348;DHT22;18821;44.800;10.326;2022-10-26T02:39:31;16.10;99.90
32348;DHT22;18821;44.800;10.326;2022-10-26T02:42:02;16.00;99.90
32348;DHT22;18821;44.800;10.326;2022-10-26T02:44:36;16.00;99.90
32348;DHT22;18821;44.800;10.326;2022-10-26T02:47:04;16.00;99.90
32348;DHT22;18821;44.800;10.326;2022-10-26T02:49:30;15.90;99.90
32348;DHT22;18821;44.800;10.326;2022-10-26T02:55:02;15.90;99.90
32348;DHT22;18821;44.800;10.326;2022-10-26T02:57:34;15.90;99.90
32348;DHT22;18821;44.800;10.326;2022-10-26T03:00:14;15.90;99.90
32348;DHT22;18821;44.800;10.326;2022-10-26T03:02:42;15.90;99.90
32348;DHT22;18821;44.800;10.326;2022-10-26T03:05:13;15.90;99.90
32348;DHT22;18821;44.800;10.326;2022-10-26T03:07:40;16.00;99.90
32348;DHT22;18821;44.800;10.326;2022-10-26T03:10:06;15.90;99.90
32348;DHT22;18821;44.800;10.326;2022-10-26T03:12:32;15.90;99.90
32348;DHT22;18821;44.800;10.326;2022-10-26T03:14:58;15.90;99.90
32348;DHT22;18821;44.800;10.326;2022-10-26T03:17:24;15.90;99.90
32348;DHT22;18821;44.800;10.326;2022-10-26T03:19:50;15.90;99.90
32348;DHT22;18821;44.800;10.326;2022-10-26T03:22:17;15.90;99.90
32348;DHT22;18821;44.800;10.326;2022-10-26T03:24:43;15.90;99.90
32348;DHT22;18821;44.800;10.326;2022-10-26T03:27:09;15.90;99.90
32348;DHT22;18821;44.800;10.326;2022-10-26T03:29:35;15.90;99.90
32348;DHT22;18821;44.800;10.326;2022-10-26T03:32:01;15.90;99.90
32348;DHT22;18821;44.800;10.326;2022-10-26T03:34:27;15.90;99.90
32348;DHT22;18821;44.800;10.326;2022-10-26T03:36:53;15.90;99.90
32348;DHT22;18821;44.800;10.326;2022-10-26T03:39:18;15.90;99.90
32348;DHT22;18821;44.800;10.326;2022-10-26T03:41:45;15.90;99.90
32348;DHT22;18821;44.800;10.326;2022-10-26T03:44:11;15.90;99.90
32348;DHT22;18821;44.800;10.326;2022-10-26T03:46:36;15.90;99.90
32348;DHT22;18821;44.800;10.326;2022-10-26T03:49:02;15.90;99.90
32348;DHT22;18821;44.800;10.326;2022-10-26T03:51:29;15.90;99.90
32348;DHT22;18821;44.800;10.326;2022-10-26T03:53:55;15.80;99.90
32348;DHT22;18821;44.800;10.326;2022-10-26T03:56:20;15.80;99.90
32348;DHT22;18821;44.800;10.326;2022-10-26T03:58:46;15.80;99.90
32348;DHT22;18821;44.800;10.326;2022-10-26T04:01:12;15.70;99.90
32348;DHT22;18821;44.800;10.326;2022-10-26T04:03:38;15.70;99.90
32348;DHT22;18821;44.800;10.326;2022-10-26T04:06:05;15.70;99.90
32348;DHT22;18821;44.800;10.326;2022-10-26T04:08:31;15.70;99.90
32348;DHT22;18821;44.800;10.326;2022-10-26T04:10:57;15.70;99.90
32348;DHT22;18821;44.800;10.326;2022-10-26T04:13:23;15.60;99.90
32348;DHT22;18821;44.800;10.326;2022-10-26T04:15:49;15.70;99.90
32348;DHT22;18821;44.800;10.326;2022-10-26T04:18:15;15.60;99.90
32348;DHT22;18821;44.800;10.326;2022-10-26T04:20:41;15.60;99.90
32348;DHT22;18821;44.800;10.326;2022-10-26T04:23:13;15.50;99.90
32348;DHT22;18821;44.800;10.326;2022-10-26T04:25:39;15.50;99.90
32348;DHT22;18821;44.800;10.326;2022-10-26T04:28:07;15.50;99.90
32348;DHT22;18821;44.800;10.326;2022-10-26T04:30:33;15.50;99.90
32348;DHT22;18821;44.800;10.326;2022-10-26T04:33:00;15.50;99.90
32348;DHT22;18821;44.800;10.326;2022-10-26T04:35:27;15.50;99.90
32348;DHT22;18821;44.800;10.326;2022-10-26T04:38:11;15.50;99.90
32348;DHT22;18821;44.800;10.326;2022-10-26T04:40:37;15.50;99.90
32348;DHT22;18821;44.800;10.326;2022-10-26T04:43:03;15.40;99.90
32348;DHT22;18821;44.800;10.326;2022-10-26T04:45:29;15.40;99.90
32348;DHT22;18821;44.800;10.326;2022-10-26T04:48:09;15.40;99.90
32348;DHT22;18821;44.800;10.326;2022-10-26T04:50:36;15.40;99.90
32348;DHT22;18821;44.800;10.326;2022-10-26T04:53:04;15.30;99.90
32348;DHT22;18821;44.800;10.326;2022-10-26T04:55:30;15.40;99.90
32348;DHT22;18821;44.800;10.326;2022-10-26T04:57:56;15.40;99.90
32348;DHT22;18821;44.800;10.326;2022-10-26T05:00:22;15.30;99.90
32348;DHT22;18821;44.800;10.326;2022-10-26T05:02:48;15.30;99.90
32348;DHT22;18821;44.800;10.326;2022-10-26T05:05:14;15.30;99.90
32348;DHT22;18821;44.800;10.326;2022-10-26T05:07:41;15.30;99.90
32348;DHT22;18821;44.800;10.326;2022-10-26T05:10:07;15.30;99.90
32348;DHT22;18821;44.800;10.326;2022-10-26T05:12:33;15.30;99.90
32348;DHT22;18821;44.800;10.326;2022-10-26T05:14:59;15.30;99.90
32348;DHT22;18821;44.800;10.326;2022-10-26T05:17:26;15.30;99.90
32348;DHT22;18821;44.800;10.326;2022-10-26T05:19:53;15.30;99.90
32348;DHT22;18821;44.800;10.326;2022-10-26T05:22:24;15.40;99.90
32348;DHT22;18821;44.800;10.326;2022-10-26T05:24:50;15.30;99.90
32348;DHT22;18821;44.800;10.326;2022-10-26T05:27:16;15.30;99.90
32348;DHT22;18821;44.800;10.326;2022-10-26T05:29:42;15.30;99.90
32348;DHT22;18821;44.800;10.326;2022-10-26T05:32:08;15.20;99.90
32348;DHT22;18821;44.800;10.326;2022-10-26T05:34:34;15.20;99.90
32348;DHT22;18821;44.800;10.326;2022-10-26T05:37:00;15.20;99.90
32348;DHT22;18821;44.800;10.326;2022-10-26T05:39:26;15.20;99.90
32348;DHT22;18821;44.800;10.326;2022-10-26T05:41:52;15.20;99.90
32348;DHT22;18821;44.800;10.326;2022-10-26T05:44:18;15.20;99.90
32348;DHT22;18821;44.800;10.326;2022-10-26T05:46:45;15.10;99.90
32348;DHT22;18821;44.800;10.326;2022-10-26T05:49:11;15.10;99.90
32348;DHT22;18821;44.800;10.326;2022-10-26T05:51:37;15.10;99.90
32348;DHT22;18821;44.800;10.326;2022-10-26T05:54:04;15.10;99.90
32348;DHT22;18821;44.800;10.326;2022-10-26T05:56:35;15.10;99.90
32348;DHT22;18821;44.800;10.326;2022-10-26T05:59:03;15.10;99.90
32348;DHT22;18821;44.800;10.326;2022-10-26T06:04:44;15.10;99.90
32348;DHT22;18821;44.800;10.326;2022-10-26T06:07:16;15.10;99.90
32348;DHT22;18821;44.800;10.326;2022-10-26T06:09:42;15.10;99.90
32348;DHT22;18821;44.800;10.326;2022-10-26T06:12:09;15.20;99.90
32348;DHT22;18821;44.800;10.326;2022-10-26T06:14:36;15.20;99.90
32348;DHT22;18821;44.800;10.326;2022-10-26T06:31:02;15.60;99.90
32348;DHT22;18821;44.800;10.326;2022-10-26T06:33:29;15.60;99.90
32348;DHT22;18821;44.800;10.326;2022-10-26T06:38:34;15.60;99.90
32348;DHT22;18821;44.800;10.326;2022-10-26T06:41:01;15.70;99.90
32348;DHT22;18821;44.800;10.326;2022-10-26T06:43:33;15.80;99.90
32348;DHT22;18821;44.800;10.326;2022-10-26T06:46:23;15.90;99.90
32348;DHT22;18821;44.800;10.326;2022-10-26T06:51:28;16.00;99.90
32348;DHT22;18821;44.800;10.326;2022-10-26T06:54:12;16.00;99.90
32348;DHT22;18821;44.800;10.326;2022-10-26T06:56:40;16.00;99.90
32348;DHT22;18821;44.800;10.326;2022-10-26T06:59:13;16.00;99.90
32348;DHT22;18821;44.800;10.326;2022-10-26T07:01:41;16.00;99.90
32348;DHT22;18821;44.800;10.326;2022-10-26T07:04:06;16.00;99.90
32348;DHT22;18821;44.800;10.326;2022-10-26T07:06:34;16.00;99.90
32348;DHT22;18821;44.800;10.326;2022-10-26T07:09:00;16.10;99.90
32348;DHT22;18821;44.800;10.326;2022-10-26T07:11:26;16.30;99.90
32348;DHT22;18821;44.800;10.326;2022-10-26T07:13:52;16.40;99.90
32348;DHT22;18821;44.800;10.326;2022-10-26T07:16:18;16.50;99.90
32348;DHT22;18821;44.800;10.326;2022-10-26T07:18:44;16.60;99.90
32348;DHT22;18821;44.800;10.326;2022-10-26T07:21:09;16.70;99.90
32348;DHT22;18821;44.800;10.326;2022-10-26T07:23:35;16.70;99.90
32348;DHT22;18821;44.800;10.326;2022-10-26T07:26:01;16.80;99.90
32348;DHT22;18821;44.800;10.326;2022-10-26T07:28:27;16.90;99.90
32348;DHT22;18821;44.800;10.326;2022-10-26T07:30:53;16.90;99.90
32348;DHT22;18821;44.800;10.326;2022-10-26T07:33:19;17.10;99.90
32348;DHT22;18821;44.800;10.326;2022-10-26T07:35:45;17.20;99.90
32348;DHT22;18821;44.800;10.326;2022-10-26T07:38:11;17.20;99.90
32348;DHT22;18821;44.800;10.326;2022-10-26T07:40:38;17.20;99.90
32348;DHT22;18821;44.800;10.326;2022-10-26T07:43:04;17.30;99.90
32348;DHT22;18821;44.800;10.326;2022-10-26T07:45:31;17.30;99.90
32348;DHT22;18821;44.800;10.326;2022-10-26T07:47:57;17.30;99.90
32348;DHT22;18821;44.800;10.326;2022-10-26T07:50:23;17.40;99.90
32348;DHT22;18821;44.800;10.326;2022-10-26T07:52:49;17.50;99.90
32348;DHT22;18821;44.800;10.326;2022-10-26T07:55:15;17.60;99.90
32348;DHT22;18821;44.800;10.326;2022-10-26T07:57:41;17.70;99.90
32348;DHT22;18821;44.800;10.326;2022-10-26T08:00:08;17.70;99.90
32348;DHT22;18821;44.800;10.326;2022-10-26T08:02:35;17.80;99.90
32348;DHT22;18821;44.800;10.326;2022-10-26T08:05:03;17.70;99.90
32348;DHT22;18821;44.800;10.326;2022-10-26T08:07:29;17.60;99.90
32348;DHT22;18821;44.800;10.326;2022-10-26T08:09:55;17.60;99.90
32348;DHT22;18821;44.800;10.326;2022-10-26T08:12:22;17.70;99.90
32348;DHT22;18821;44.800;10.326;2022-10-26T08:14:48;17.70;99.90
32348;DHT22;18821;44.800;10.326;2022-10-26T08:17:14;17.80;99.90
32348;DHT22;18821;44.800;10.326;2022-10-26T08:19:40;18.00;99.90
32348;DHT22;18821;44.800;10.326;2022-10-26T08:22:07;18.10;99.90
32348;DHT22;18821;44.800;10.326;2022-10-26T08:24:34;18.30;99.90
32348;DHT22;18821;44.800;10.326;2022-10-26T08:27:00;18.30;99.90
32348;DHT22;18821;44.800;10.326;2022-10-26T08:29:27;18.30;99.90
32348;DHT22;18821;44.800;10.326;2022-10-26T08:31:53;18.50;99.90
32348;DHT22;18821;44.800;10.326;2022-10-26T08:34:19;18.60;99.90
32348;DHT22;18821;44.800;10.326;2022-10-26T08:36:45;18.70;99.90
32348;DHT22;18821;44.800;10.326;2022-10-26T08:39:11;18.80;99.90
32348;DHT22;18821;44.800;10.326;2022-10-26T08:41:43;18.80;99.90
32348;DHT22;18821;44.800;10.326;2022-10-26T08:50:03;18.90;99.90
32348;DHT22;18821;44.800;10.326;2022-10-26T08:55:34;19.00;99.90
32348;DHT22;18821;44.800;10.326;2022-10-26T08:58:05;18.90;99.90
32348;DHT22;18821;44.800;10.326;2022-10-26T09:00:33;18.80;99.90
32348;DHT22;18821;44.800;10.326;2022-10-26T09:02:59;18.80;99.90
32348;DHT22;18821;44.800;10.326;2022-10-26T09:05:37;18.90;99.90
32348;DHT22;18821;44.800;10.326;2022-10-26T09:10:40;19.20;99.90
32348;DHT22;18821;44.800;10.326;2022-10-26T09:16:02;19.30;99.90
32348;DHT22;18821;44.800;10.326;2022-10-26T09:23:59;19.30;99.90
32348;DHT22;18821;44.800;10.326;2022-10-26T09:26:51;19.30;99.90
32348;DHT22;18821;44.800;10.326;2022-10-26T09:29:18;19.40;99.90
32348;DHT22;18821;44.800;10.326;2022-10-26T09:31:48;19.50;99.90
32348;DHT22;18821;44.800;10.326;2022-10-26T09:34:36;19.70;99.90
32348;DHT22;18821;44.800;10.326;2022-10-26T09:37:20;19.70;99.90
32348;DHT22;18821;44.800;10.326;2022-10-26T09:47:54;19.80;99.90
32348;DHT22;18821;44.800;10.326;2022-10-26T09:50:47;19.90;99.90
32348;DHT22;18821;44.800;10.326;2022-10-26T09:53:14;20.00;99.90
32348;DHT22;18821;44.800;10.326;2022-10-26T09:55:44;20.10;99.90
32348;DHT22;18821;44.800;10.326;2022-10-26T09:58:24;20.20;99.90
32348;DHT22;18821;44.800;10.326;2022-10-26T10:00:51;20.40;99.90
32348;DHT22;18821;44.800;10.326;2022-10-26T10:03:20;20.40;99.90
32348;DHT22;18821;44.800;10.326;2022-10-26T10:05:47;20.50;99.90
32348;DHT22;18821;44.800;10.326;2022-10-26T10:11:07;20.60;99.90
32348;DHT22;18821;44.800;10.326;2022-10-26T10:13:36;20.90;99.90
32348;DHT22;18821;44.800;10.326;2022-10-26T10:18:32;20.80;99.90
32348;DHT22;18821;44.800;10.326;2022-10-26T10:21:03;20.80;99.90
32348;DHT22;18821;44.800;10.326;2022-10-26T10:23:35;20.90;99.90
32348;DHT22;18821;44.800;10.326;2022-10-26T10:26:08;20.90;99.90
32348;DHT22;18821;44.800;10.326;2022-10-26T10:28:39;20.90;99.90
32348;DHT22;18821;44.800;10.326;2022-10-26T10:31:21;20.80;99.90
32348;DHT22;18821;44.800;10.326;2022-10-26T10:33:51;21.00;99.90
32348;DHT22;18821;44.800;10.326;2022-10-26T10:36:20;21.20;99.90
32348;DHT22;18821;44.800;10.326;2022-10-26T10:38:49;21.30;99.90
32348;DHT22;18821;44.800;10.326;2022-10-26T10:41:23;21.40;99.90
32348;DHT22;18821;44.800;10.326;2022-10-26T10:44:06;21.30;99.90
32348;DHT22;18821;44.800;10.326;2022-10-26T10:46:34;21.30;99.90
32348;DHT22;18821;44.800;10.326;2022-10-26T10:49:05;21.40;99.90
32348;DHT22;18821;44.800;10.326;2022-10-26T10:51:40;21.40;99.90
32348;DHT22;18821;44.800;10.326;2022-10-26T10:54:37;21.60;99.90
32348;DHT22;18821;44.800;10.326;2022-10-26T11:05:37;21.90;99.90
32348;DHT22;18821;44.800;10.326;2022-10-26T11:08:20;21.80;99.90
32348;DHT22;18821;44.800;10.326;2022-10-26T11:14:14;22.10;99.90
32348;DHT22;18821;44.800;10.326;2022-10-26T11:16:19;22.10;99.90
32348;DHT22;18821;44.800;10.326;2022-10-26T11:19:31;22.10;99.90
32348;DHT22;18821;44.800;10.326;2022-10-26T11:21:58;22.10;99.90
32348;DHT22;18821;44.800;10.326;2022-10-26T11:27:25;22.40;99.90
32348;DHT22;18821;44.800;10.326;2022-10-26T11:29:55;22.40;99.90
32348;DHT22;18821;44.800;10.326;2022-10-26T11:32:29;22.50;99.90
32348;DHT22;18821;44.800;10.326;2022-10-26T11:36:18;22.50;99.90
32348;DHT22;18821;44.800;10.326;2022-10-26T11:43:42;22.80;99.90
32348;DHT22;18821;44.800;10.326;2022-10-26T11:46:17;22.70;99.90
32348;DHT22;18821;44.800;10.326;2022-10-26T11:49:10;22.50;99.90
32348;DHT22;18821;44.800;10.326;2022-10-26T11:51:46;22.60;99.90
32348;DHT22;18821;44.800;10.326;2022-10-26T11:54:27;22.80;99.90
32348;DHT22;18821;44.800;10.326;2022-10-26T11:56:56;22.90;99.90
32348;DHT22;18821;44.800;10.326;2022-10-26T11:59:29;22.90;99.90
32348;DHT22;18821;44.800;10.326;2022-10-26T12:02:26;22.90;99.90
32348;DHT22;18821;44.800;10.326;2022-10-26T12:05:01;23.10;99.90
32348;DHT22;18821;44.800;10.326;2022-10-26T12:07:35;23.20;99.90
32348;DHT22;18821;44.800;10.326;2022-10-26T12:10:04;23.10;99.90
32348;DHT22;18821;44.800;10.326;2022-10-26T12:12:49;23.10;99.90
32348;DHT22;18821;44.800;10.326;2022-10-26T12:15:27;23.10;99.90
32348;DHT22;18821;44.800;10.326;2022-10-26T12:21:00;23.20;99.90
32348;DHT22;18821;44.800;10.326;2022-10-26T12:23:35;23.40;99.90
32348;DHT22;18821;44.800;10.326;2022-10-26T12:33:58;23.40;99.90
32348;DHT22;18821;44.800;10.326;2022-10-26T12:50:00;23.20;99.90
32348;DHT22;18821;44.800;10.326;2022-10-26T12:55:12;23.30;99.90
32348;DHT22;18821;44.800;10.326;2022-10-26T13:00:29;23.50;99.90
32348;DHT22;18821;44.800;10.326;2022-10-26T13:08:50;23.70;99.90
32348;DHT22;18821;44.800;10.326;2022-10-26T13:11:31;23.60;99.90
32348;DHT22;18821;44.800;10.326;2022-10-26T13:14:06;23.10;99.90
32348;DHT22;18821;44.800;10.326;2022-10-26T13:16:33;23.00;99.90
32348;DHT22;18821;44.800;10.326;2022-10-26T13:19:00;23.20;99.90
32348;DHT22;18821;44.800;10.326;2022-10-26T13:21:26;23.40;99.90
32348;DHT22;18821;44.800;10.326;2022-10-26T13:26:21;23.40;99.90
32348;DHT22;18821;44.800;10.326;2022-10-26T13:29:09;23.10;99.90
32348;DHT22;18821;44.800;10.326;2022-10-26T13:34:20;23.00;99.90
32348;DHT22;18821;44.800;10.326;2022-10-26T13:37:17;23.10;99.90
32348;DHT22;18821;44.800;10.326;2022-10-26T13:39:48;23.00;99.90
32348;DHT22;18821;44.800;10.326;2022-10-26T13:42:20;23.00;99.90
32348;DHT22;18821;44.800;10.326;2022-10-26T13:45:00;23.00;99.90
32348;DHT22;18821;44.800;10.326;2022-10-26T13:50:23;23.10;99.90
32348;DHT22;18821;44.800;10.326;2022-10-26T13:52:59;23.10;99.90
32348;DHT22;18821;44.800;10.326;2022-10-26T13:55:43;23.10;99.90
32348;DHT22;18821;44.800;10.326;2022-10-26T14:01:01;23.30;99.90
32348;DHT22;18821;44.800;10.326;2022-10-26T14:03:28;23.30;99.90
32348;DHT22;18821;44.800;10.326;2022-10-26T14:05:54;23.20;99.90
32348;DHT22;18821;44.800;10.326;2022-10-26T14:08:21;23.20;99.90
32348;DHT22;18821;44.800;10.326;2022-10-26T14:10:52;23.20;99.90
32348;DHT22;18821;44.800;10.326;2022-10-26T14:13:22;23.20;99.90
32348;DHT22;18821;44.800;10.326;2022-10-26T14:15:51;23.20;99.90
32348;DHT22;18821;44.800;10.326;2022-10-26T14:18:23;23.20;99.90
32348;DHT22;18821;44.800;10.326;2022-10-26T14:21:02;23.10;99.90
32348;DHT22;18821;44.800;10.326;2022-10-26T14:26:27;23.00;99.90
32348;DHT22;18821;44.800;10.326;2022-10-26T14:28:59;23.10;99.90
32348;DHT22;18821;44.800;10.326;2022-10-26T14:31:42;23.20;99.90
32348;DHT22;18821;44.800;10.326;2022-10-26T14:34:10;23.10;99.90
32348;DHT22;18821;44.800;10.326;2022-10-26T14:37:01;23.00;99.90
32348;DHT22;18821;44.800;10.326;2022-10-26T14:39:43;23.10;99.90
32348;DHT22;18821;44.800;10.326;2022-10-26T14:42:23;23.10;99.90
32348;DHT22;18821;44.800;10.326;2022-10-26T14:44:51;23.10;99.90
32348;DHT22;18821;44.800;10.326;2022-10-26T14:47:28;22.90;99.90
32348;DHT22;18821;44.800;10.326;2022-10-26T14:49:55;22.90;99.90
32348;DHT22;18821;44.800;10.326;2022-10-26T14:52:28;22.80;99.90
32348;DHT22;18821;44.800;10.326;2022-10-26T14:55:10;22.70;99.90
32348;DHT22;18821;44.800;10.326;2022-10-26T14:57:39;22.80;99.90
32348;DHT22;18821;44.800;10.326;2022-10-26T15:00:15;22.80;99.90
32348;DHT22;18821;44.800;10.326;2022-10-26T15:03:01;22.80;99.90
32348;DHT22;18821;44.800;10.326;2022-10-26T15:05:33;22.80;99.90
32348;DHT22;18821;44.800;10.326;2022-10-26T15:08:00;22.80;99.90
32348;DHT22;18821;44.800;10.326;2022-10-26T15:13:09;22.80;99.90
32348;DHT22;18821;44.800;10.326;2022-10-26T15:15:36;22.70;99.90
32348;DHT22;18821;44.800;10.326;2022-10-26T15:18:04;22.70;99.90
32348;DHT22;18821;44.800;10.326;2022-10-26T15:20:30;22.70;99.90
32348;DHT22;18821;44.800;10.326;2022-10-26T15:22:58;22.60;99.90
32348;DHT22;18821;44.800;10.326;2022-10-26T15:25:30;22.60;99.90
32348;DHT22;18821;44.800;10.326;2022-10-26T15:28:44;22.60;99.90
32348;DHT22;18821;44.800;10.326;2022-10-26T15:33:31;22.50;99.90
32348;DHT22;18821;44.800;10.326;2022-10-26T15:36:20;22.50;99.90
32348;DHT22;18821;44.800;10.326;2022-10-26T15:38:47;22.40;99.90
32348;DHT22;18821;44.800;10.326;2022-10-26T15:43:56;22.30;99.90
32348;DHT22;18821;44.800;10.326;2022-10-26T15:46:29;22.30;99.90
32348;DHT22;18821;44.800;10.326;2022-10-26T15:48:59;22.20;99.90
32348;DHT22;18821;44.800;10.326;2022-10-26T15:51:25;22.20;99.90
32348;DHT22;18821;44.800;10.326;2022-10-26T15:53:52;22.00;99.90
32348;DHT22;18821;44.800;10.326;2022-10-26T15:56:21;22.00;99.90
32348;DHT22;18821;44.800;10.326;2022-10-26T15:58:48;21.90;99.90
32348;DHT22;18821;44.800;10.326;2022-10-26T16:01:26;21.80;99.90
32348;DHT22;18821;44.800;10.326;2022-10-26T16:03:52;21.70;99.90
32348;DHT22;18821;44.800;10.326;2022-10-26T16:06:25;21.70;99.90
32348;DHT22;18821;44.800;10.326;2022-10-26T16:08:55;21.60;99.90
32348;DHT22;18821;44.800;10.326;2022-10-26T16:11:21;21.60;99.90
32348;DHT22;18821;44.800;10.326;2022-10-26T16:13:47;21.50;99.90
32348;DHT22;18821;44.800;10.326;2022-10-26T16:16:15;21.40;99.90
32348;DHT22;18821;44.800;10.326;2022-10-26T16:18:42;21.40;99.90
32348;DHT22;18821;44.800;10.326;2022-10-26T16:21:12;21.40;99.90
32348;DHT22;18821;44.800;10.326;2022-10-26T16:23:39;21.40;99.90
32348;DHT22;18821;44.800;10.326;2022-10-26T16:26:06;21.30;99.90
32348;DHT22;18821;44.800;10.326;2022-10-26T16:28:32;21.30;99.90
32348;DHT22;18821;44.800;10.326;2022-10-26T16:31:00;21.30;99.90
32348;DHT22;18821;44.800;10.326;2022-10-26T16:33:26;21.30;99.90
32348;DHT22;18821;44.800;10.326;2022-10-26T16:35:58;21.20;99.90
32348;DHT22;18821;44.800;10.326;2022-10-26T16:38:25;21.10;99.90
32348;DHT22;18821;44.800;10.326;2022-10-26T16:43:35;21.00;99.90
32348;DHT22;18821;44.800;10.326;2022-10-26T16:46:16;20.90;99.90
32348;DHT22;18821;44.800;10.326;2022-10-26T16:48:43;20.90;99.90
32348;DHT22;18821;44.800;10.326;2022-10-26T16:51:13;20.70;99.90
32348;DHT22;18821;44.800;10.326;2022-10-26T16:53:40;20.60;99.90
32348;DHT22;18821;44.800;10.326;2022-10-26T16:56:11;20.60;99.90
32348;DHT22;18821;44.800;10.326;2022-10-26T16:58:38;20.50;99.90
32348;DHT22;18821;44.800;10.326;2022-10-26T17:01:05;20.40;99.90
32348;DHT22;18821;44.800;10.326;2022-10-26T17:03:31;20.40;99.90
32348;DHT22;18821;44.800;10.326;2022-10-26T17:06:02;20.30;99.90
32348;DHT22;18821;44.800;10.326;2022-10-26T17:08:30;20.20;99.90
32348;DHT22;18821;44.800;10.326;2022-10-26T17:11:08;20.10;99.90
32348;DHT22;18821;44.800;10.326;2022-10-26T17:13:35;20.10;99.90
32348;DHT22;18821;44.800;10.326;2022-10-26T17:16:04;20.00;99.90
32348;DHT22;18821;44.800;10.326;2022-10-26T17:18:30;20.00;99.90
32348;DHT22;18821;44.800;10.326;2022-10-26T17:20:56;19.90;99.90
32348;DHT22;18821;44.800;10.326;2022-10-26T17:23:22;19.90;99.90
32348;DHT22;18821;44.800;10.326;2022-10-26T17:25:49;19.90;99.90
32348;DHT22;18821;44.800;10.326;2022-10-26T17:28:15;19.80;99.90
32348;DHT22;18821;44.800;10.326;2022-10-26T17:30:41;19.80;99.90
32348;DHT22;18821;44.800;10.326;2022-10-26T17:33:07;19.70;99.90
32348;DHT22;18821;44.800;10.326;2022-10-26T17:35:33;19.70;99.90
32348;DHT22;18821;44.800;10.326;2022-10-26T17:38:01;19.70;99.90
32348;DHT22;18821;44.800;10.326;2022-10-26T17:40:27;19.60;99.90
32348;DHT22;18821;44.800;10.326;2022-10-26T17:42:53;19.60;99.90
32348;DHT22;18821;44.800;10.326;2022-10-26T17:45:19;19.60;99.90
32348;DHT22;18821;44.800;10.326;2022-10-26T17:47:45;19.50;99.90
32348;DHT22;18821;44.800;10.326;2022-10-26T17:50:11;19.50;99.90
32348;DHT22;18821;44.800;10.326;2022-10-26T17:52:37;19.40;99.90
32348;DHT22;18821;44.800;10.326;2022-10-26T17:55:03;19.40;99.90
32348;DHT22;18821;44.800;10.326;2022-10-26T17:57:31;19.40;99.90
32348;DHT22;18821;44.800;10.326;2022-10-26T17:59:57;19.30;99.90
32348;DHT22;18821;44.800;10.326;2022-10-26T18:02:23;19.30;99.90
32348;DHT22;18821;44.800;10.326;2022-10-26T18:04:49;19.20;99.90
32348;DHT22;18821;44.800;10.326;2022-10-26T18:07:16;19.20;99.90
32348;DHT22;18821;44.800;10.326;2022-10-26T18:09:42;19.10;99.90
32348;DHT22;18821;44.800;10.326;2022-10-26T18:12:08;19.10;99.90
32348;DHT22;18821;44.800;10.326;2022-10-26T18:14:35;19.10;99.90
32348;DHT22;18821;44.800;10.326;2022-10-26T18:17:01;19.10;99.90
32348;DHT22;18821;44.800;10.326;2022-10-26T18:19:27;19.00;99.90